Time;durP1;ratioP1;P1;durP2;ratioP2;P2;SDS_P1;SDS_P2;PMS_P1;PMS_P2;Temp;Humidity;BMP_temperature;BMP_pressure;BME280_temperature;BME280_humidity;BME280_pressure;Samples;Min_cycle;Max_cycle;Signal;HPM_P1;HPM_P2
2021/05/22 00:01:35;;;;;;;4.35;3.00;;;;;;;11.17;71.72;100505.79;1696465;82;21065;-46
2021/05/22 00:04:03;;;;;;;4.78;2.70;;;;;;;11.13;71.79;100500.72;1699484;82;21562;-49
2021/05/22 00:06:30;;;;;;;4.85;3.35;;;;;;;11.08;71.84;100504.14;1699537;82;21054;-49
2021/05/22 00:08:58;;;;;;;3.60;2.77;;;;;;;11.02;71.91;100502.71;1703296;82;21023;-48
2021/05/22 00:11:24;;;;;;;4.83;2.80;;;;;;;10.96;72.05;100502.61;1701757;82;21022;-45
2021/05/22 00:13:51;;;;;;;3.95;3.00;;;;;;;10.94;72.04;100508.98;1700332;84;21038;-42
2021/05/22 00:16:18;;;;;;;4.97;2.80;;;;;;;10.93;72.06;100512.11;1695501;82;21038;-44
2021/05/22 00:18:46;;;;;;;4.97;3.05;;;;;;;10.91;72.10;100507.81;1701901;83;20986;-44
2021/05/22 00:21:13;;;;;;;3.65;2.67;;;;;;;10.90;72.15;100506.96;1699917;82;21327;-43
2021/05/22 00:23:40;;;;;;;3.87;2.65;;;;;;;10.90;72.18;100509.62;1696868;84;21014;-42
2021/05/22 00:26:06;;;;;;;3.90;2.87;;;;;;;10.89;72.23;100506.59;1699745;82;21055;-44
2021/05/22 00:28:34;;;;;;;3.80;2.95;;;;;;;10.87;72.29;100504.96;1699580;82;21545;-41
2021/05/22 00:31:00;;;;;;;4.03;2.90;;;;;;;10.84;72.29;100508.67;1702023;82;21051;-42
2021/05/22 00:33:27;;;;;;;4.12;2.67;;;;;;;10.81;72.22;100503.52;1701009;82;21002;-44
2021/05/22 00:35:53;;;;;;;5.25;2.83;;;;;;;10.80;72.28;100509.79;1701205;82;20990;-46
2021/05/22 00:38:22;;;;;;;4.58;3.27;;;;;;;10.77;72.40;100513.98;1702298;82;20995;-45
2021/05/22 00:40:48;;;;;;;4.47;3.10;;;;;;;10.74;72.48;100512.35;1699984;82;20987;-46
2021/05/22 00:43:15;;;;;;;3.25;2.85;;;;;;;10.73;72.55;100513.28;1700144;82;20983;-44
2021/05/22 00:45:43;;;;;;;4.00;2.83;;;;;;;10.73;72.60;100509.76;1700251;83;21079;-43
2021/05/22 00:48:11;;;;;;;4.10;2.90;;;;;;;10.73;72.60;100510.61;1698054;83;21046;-54
2021/05/22 00:50:41;;;;;;;3.67;2.87;;;;;;;10.72;72.67;100516.06;1702424;82;21722;-47
2021/05/22 00:53:08;;;;;;;3.22;2.67;;;;;;;10.70;72.73;100519.28;1696988;82;21018;-46
2021/05/22 00:55:35;;;;;;;4.33;3.42;;;;;;;10.68;72.76;100513.17;1681241;82;21086;-46
2021/05/22 00:58:03;;;;;;;5.37;2.83;;;;;;;10.66;72.98;100514.61;1697830;82;21370;-44
2021/05/22 01:00:47;;;;;;;4.37;2.75;;;;;;;10.65;73.08;100510.69;1697632;82;21057;-43
2021/05/22 01:03:21;;;;;;;4.25;2.85;;;;;;;10.64;73.24;100515.66;1669748;84;21012;-46
2021/05/22 01:05:48;;;;;;;3.55;2.52;;;;;;;10.62;73.31;100507.73;1668419;82;21036;-44
2021/05/22 01:08:22;;;;;;;3.98;2.83;;;;;;;10.61;73.36;100512.21;1695009;83;21018;-43
2021/05/22 01:10:53;;;;;;;5.45;3.75;;;;;;;10.61;73.42;100508.21;1697586;82;21030;-44
2021/05/22 01:13:19;;;;;;;3.72;3.10;;;;;;;10.61;73.46;100508.21;1699659;83;22084;-45
2021/05/22 01:15:46;;;;;;;5.25;2.83;;;;;;;10.60;73.49;100505.14;1698040;82;21010;-44
2021/05/22 01:18:13;;;;;;;4.65;3.00;;;;;;;10.59;73.46;100508.77;1701358;82;21434;-45
2021/05/22 01:20:44;;;;;;;5.58;2.60;;;;;;;10.56;73.50;100510.28;1694778;82;21817;-44
2021/05/22 01:23:22;;;;;;;5.50;3.65;;;;;;;10.53;73.60;100509.14;1700770;82;20979;-45
2021/05/22 01:25:50;;;;;;;3.67;2.83;;;;;;;10.51;73.69;100510.17;1697842;82;20994;-46
2021/05/22 01:28:17;;;;;;;4.62;3.20;;;;;;;10.51;73.82;100514.17;1701314;82;21011;-45
2021/05/22 01:30:45;;;;;;;4.62;3.08;;;;;;;10.51;73.88;100519.50;1699948;82;21006;-45
2021/05/22 01:33:11;;;;;;;3.70;2.70;;;;;;;10.49;73.93;100520.91;1693371;82;21066;-43
2021/05/22 01:35:38;;;;;;;3.65;3.05;;;;;;;10.46;73.98;100519.77;1644727;85;21503;-49
2021/05/22 01:38:05;;;;;;;4.20;2.83;;;;;;;10.45;74.01;100531.36;1685968;82;21056;-43
2021/05/22 01:40:31;;;;;;;4.80;3.30;;;;;;;10.43;74.07;100525.73;1701202;82;21026;-46
2021/05/22 01:42:58;;;;;;;4.30;3.27;;;;;;;10.42;74.14;100538.20;1701780;82;21474;-49
2021/05/22 01:45:33;;;;;;;3.85;2.70;;;;;;;10.40;74.24;100536.09;1701986;82;21062;-47
2021/05/22 01:48:02;;;;;;;2.67;2.42;;;;;;;10.40;74.29;100531.61;1698357;83;21578;-48
2021/05/22 01:50:34;;;;;;;4.37;3.08;;;;;;;10.39;74.29;100537.91;1668254;83;21011;-44
2021/05/22 01:53:05;;;;;;;3.20;2.77;;;;;;;10.38;74.37;100533.98;1702237;82;20998;-44
2021/05/22 01:55:33;;;;;;;4.05;2.92;;;;;;;10.38;74.43;100536.64;1689431;83;21062;-42
2021/05/22 01:58:00;;;;;;;3.72;3.22;;;;;;;10.37;74.62;100542.45;1701989;83;21038;-41
2021/05/22 02:00:26;;;;;;;5.25;3.17;;;;;;;10.37;74.64;100541.60;1701417;83;21124;-44
2021/05/22 02:03:14;;;;;;;3.35;2.45;;;;;;;10.36;74.65;100542.08;1698498;83;20995;-42
2021/05/22 02:05:40;;;;;;;4.83;3.00;;;;;;;10.35;74.70;100544.34;1697115;82;21510;-45
2021/05/22 02:08:13;;;;;;;4.80;2.87;;;;;;;10.34;74.81;100536.45;1666000;84;21078;-43
2021/05/22 02:10:40;;;;;;;3.67;2.77;;;;;;;10.34;74.86;100537.31;1698640;82;21007;-45
2021/05/22 02:13:07;;;;;;;3.40;2.42;;;;;;;10.34;74.87;100543.97;1698718;83;21584;-47
2021/05/22 02:15:33;;;;;;;6.40;2.95;;;;;;;10.34;74.89;100546.64;1697224;82;21035;-46
2021/05/22 02:18:00;;;;;;;3.65;2.72;;;;;;;10.32;74.93;100541.86;1677405;83;21026;-44
2021/05/22 02:20:27;;;;;;;5.85;3.12;;;;;;;10.33;75.02;100546.70;1672902;84;21649;-49
2021/05/22 02:22:55;;;;;;;3.22;2.52;;;;;;;10.32;75.06;100549.00;1696132;83;21038;-45
2021/05/22 02:25:21;;;;;;;5.45;2.50;;;;;;;10.32;75.14;100545.86;1695805;83;21090;-46
2021/05/22 02:27:48;;;;;;;3.05;2.60;;;;;;;10.32;75.25;100547.19;1695196;82;21342;-46
2021/05/22 02:30:17;;;;;;;4.15;2.70;;;;;;;10.33;75.34;100545.37;1697321;82;21571;-44
2021/05/22 02:32:46;;;;;;;2.92;2.52;;;;;;;10.33;75.45;100556.04;1697121;82;21006;-44
2021/05/22 02:35:13;;;;;;;4.05;2.80;;;;;;;10.33;75.58;100556.04;1693921;83;21038;-43
2021/05/22 02:37:39;;;;;;;3.12;2.62;;;;;;;10.33;75.65;100554.26;1698382;82;21554;-45
2021/05/22 02:40:12;;;;;;;3.70;2.70;;;;;;;10.33;75.71;100560.92;1698697;83;21505;-43
2021/05/22 02:42:39;;;;;;;3.75;2.55;;;;;;;10.34;75.83;100566.63;1698347;83;21364;-46
2021/05/22 02:45:08;;;;;;;4.10;2.60;;;;;;;10.33;76.08;100570.25;1676012;83;21048;-43
2021/05/22 02:47:35;;;;;;;3.83;2.83;;;;;;;10.33;76.38;100573.36;1694990;82;21027;-44
2021/05/22 02:50:06;;;;;;;3.58;2.60;;;;;;;10.34;76.57;100577.77;1696284;83;20991;-46
2021/05/22 02:52:33;;;;;;;4.22;2.72;;;;;;;10.35;76.81;100584.81;1685102;84;20991;-45
2021/05/22 02:54:59;;;;;;;4.00;2.62;;;;;;;10.38;77.05;100584.62;1677099;82;21042;-47
2021/05/22 02:57:26;;;;;;;3.08;2.22;;;;;;;10.39;77.21;100581.89;1680970;82;21540;-46
2021/05/22 02:59:52;;;;;;;3.10;2.42;;;;;;;10.43;77.39;100589.70;1707611;82;21002;-48
2021/05/22 03:02:19;;;;;;;4.67;2.90;;;;;;;10.45;77.51;100589.16;1669296;84;21094;-46
2021/05/22 03:04:47;;;;;;;4.75;2.70;;;;;;;10.44;77.65;100594.97;1697056;82;21017;-45
2021/05/22 03:07:14;;;;;;;2.87;2.58;;;;;;;10.47;77.74;100602.78;1701899;82;20994;-45
2021/05/22 03:09:42;;;;;;;3.15;2.83;;;;;;;10.50;77.81;100601.75;1699248;82;21693;-45
2021/05/22 03:12:08;;;;;;;3.10;2.33;;;;;;;10.53;77.84;100606.45;1660956;84;21059;-45
2021/05/22 03:14:35;;;;;;;4.67;2.47;;;;;;;10.57;78.00;100610.66;1649024;85;21074;-45
2021/05/22 03:17:02;;;;;;;3.92;2.72;;;;;;;10.62;78.11;100607.73;1667797;84;20996;-44
2021/05/22 03:19:28;;;;;;;3.58;2.80;;;;;;;10.64;78.20;100608.51;1685216;82;21040;-44
2021/05/22 03:21:55;;;;;;;3.62;2.45;;;;;;;10.69;78.23;100621.11;1693822;82;21010;-45
2021/05/22 03:24:22;;;;;;;3.70;2.35;;;;;;;10.73;78.22;100613.78;1703966;82;21081;-45
2021/05/22 03:26:49;;;;;;;3.80;2.52;;;;;;;10.77;78.20;100621.53;1702318;82;21022;-46
2021/05/22 03:29:16;;;;;;;3.12;2.45;;;;;;;10.83;78.16;100617.64;1702253;82;22048;-46
2021/05/22 03:31:43;;;;;;;3.22;2.62;;;;;;;10.90;78.13;100619.02;1694668;82;21022;-46
2021/05/22 03:34:09;;;;;;;3.77;2.45;;;;;;;10.95;78.09;100618.75;1697540;82;21030;-43
2021/05/22 03:36:36;;;;;;;3.62;2.30;;;;;;;10.99;78.04;100613.16;1702926;82;21010;-53
2021/05/22 03:39:04;;;;;;;4.47;2.62;;;;;;;11.08;77.93;100617.56;1698113;82;21567;-48
2021/05/22 03:41:32;;;;;;;2.95;2.27;;;;;;;11.15;77.77;100617.59;1701876;82;21003;-47
2021/05/22 03:43:59;;;;;;;4.25;2.25;;;;;;;11.22;77.62;100612.28;1701652;82;21000;-47
2021/05/22 03:46:26;;;;;;;2.58;1.98;;;;;;;11.30;77.58;100613.16;1699340;82;21034;-44
2021/05/22 03:48:53;;;;;;;4.15;2.62;;;;;;;11.37;77.80;100614.52;1702759;82;21038;-49
2021/05/22 03:51:20;;;;;;;3.00;2.37;;;;;;;11.44;78.31;100616.73;1668355;84;21031;-44
2021/05/22 03:53:46;;;;;;;4.15;2.35;;;;;;;11.52;78.72;100616.75;1668205;85;21945;-47
2021/05/22 03:56:13;;;;;;;4.15;2.83;;;;;;;11.58;78.87;100622.56;1701039;82;21101;-53
2021/05/22 03:58:39;;;;;;;3.75;2.52;;;;;;;11.64;78.68;100626.67;1696253;82;21027;-49
2021/05/22 04:01:06;;;;;;;3.75;2.40;;;;;;;11.70;78.35;100620.97;1700810;82;21579;-50
2021/05/22 04:03:33;;;;;;;3.85;2.70;;;;;;;11.77;78.22;100616.97;1691837;82;21023;-57
2021/05/22 04:05:59;;;;;;;4.30;2.83;;;;;;;11.86;78.13;100616.87;1648946;85;21409;-47
2021/05/22 04:08:26;;;;;;;5.08;3.52;;;;;;;11.93;78.01;100616.06;1656758;85;21022;-47
2021/05/22 04:10:52;;;;;;;5.55;3.25;;;;;;;11.99;77.79;100617.85;1699396;82;21026;-45
2021/05/22 04:13:19;;;;;;;5.08;2.87;;;;;;;12.07;77.43;100621.39;1669308;84;21080;-43
2021/05/22 04:15:46;;;;;;;5.30;3.27;;;;;;;12.14;77.13;100617.38;1666566;84;21012;-46
2021/05/22 04:18:13;;;;;;;3.95;2.65;;;;;;;12.22;76.94;100618.23;1663682;84;21020;-46
2021/05/22 04:20:40;;;;;;;4.92;2.95;;;;;;;12.30;77.04;100627.98;1699296;82;21042;-49
2021/05/22 04:23:08;;;;;;;4.80;3.20;;;;;;;12.38;77.03;100635.52;1680706;82;21550;-46
2021/05/22 04:25:34;;;;;;;4.30;3.10;;;;;;;12.45;76.87;100634.17;1697760;82;21058;-45
2021/05/22 04:28:01;;;;;;;5.08;2.27;;;;;;;12.51;76.70;100638.64;1700420;82;20973;-45
2021/05/22 04:30:28;;;;;;;6.00;3.10;;;;;;;12.59;76.80;100638.62;1699640;82;21063;-45
2021/05/22 04:32:54;;;;;;;3.42;2.98;;;;;;;12.66;76.88;100639.47;1697013;82;21046;-47
2021/05/22 04:35:21;;;;;;;4.83;3.15;;;;;;;12.73;76.86;100640.80;1698932;82;21006;-47
2021/05/22 04:37:48;;;;;;;4.53;2.90;;;;;;;12.83;77.03;100640.20;1699059;82;21026;-44
2021/05/22 04:40:15;;;;;;;3.25;2.58;;;;;;;12.89;77.17;100636.63;1698825;82;21632;-45
2021/05/22 04:42:41;;;;;;;5.92;3.12;;;;;;;12.97;76.87;100633.45;1701018;82;21070;-46
2021/05/22 04:45:11;;;;;;;4.65;2.80;;;;;;;13.06;76.35;100626.64;1698637;82;21033;-44
2021/05/22 04:47:46;;;;;;;3.50;2.83;;;;;;;13.15;75.83;100624.21;1697427;82;21994;-44
2021/05/22 04:50:15;;;;;;;5.40;3.30;;;;;;;13.25;75.50;100629.78;1698998;82;21073;-45
2021/05/22 04:52:44;;;;;;;4.78;2.62;;;;;;;13.34;75.64;100629.20;1699810;82;21042;-45
2021/05/22 04:55:11;;;;;;;3.98;2.30;;;;;;;13.44;75.44;100621.41;1701222;82;21062;-48
2021/05/22 04:57:38;;;;;;;4.00;2.52;;;;;;;13.54;75.45;100631.02;1700205;82;21126;-44
2021/05/22 05:00:07;;;;;;;4.28;2.85;;;;;;;13.62;74.93;100634.02;1701210;82;21030;-45
2021/05/22 05:02:34;;;;;;;4.10;2.85;;;;;;;13.72;74.08;100632.91;1699157;82;21017;-44
2021/05/22 05:05:01;;;;;;;5.42;2.72;;;;;;;13.80;73.50;100631.39;1698174;82;21003;-41
2021/05/22 05:07:27;;;;;;;3.10;2.10;;;;;;;13.89;73.08;100633.09;1697229;82;21050;-47
2021/05/22 05:09:54;;;;;;;2.95;1.90;;;;;;;13.98;72.77;100640.46;1696056;82;21528;-47
2021/05/22 05:12:22;;;;;;;2.25;1.67;;;;;;;14.05;71.54;100633.22;1697781;83;21565;-47
2021/05/22 05:14:48;;;;;;;2.95;1.50;;;;;;;14.15;70.28;100637.45;1698684;82;21034;-48
2021/05/22 05:17:15;;;;;;;1.80;1.35;;;;;;;14.25;68.93;100633.63;1700273;82;21046;-46
2021/05/22 05:19:42;;;;;;;2.70;1.70;;;;;;;14.35;68.10;100636.03;1698916;82;21618;-48
2021/05/22 05:22:10;;;;;;;2.40;1.35;;;;;;;14.46;67.03;100644.18;1701398;82;20990;-42
2021/05/22 05:24:37;;;;;;;1.82;1.32;;;;;;;14.57;66.21;100638.55;1700459;82;21362;-41
2021/05/22 05:27:04;;;;;;;2.87;1.30;;;;;;;14.64;65.68;100642.47;1699065;82;21038;-42
2021/05/22 05:29:31;;;;;;;2.90;1.20;;;;;;;14.74;65.18;100644.89;1696703;82;21034;-46
2021/05/22 05:31:57;;;;;;;1.98;1.25;;;;;;;14.82;65.29;100645.17;1659909;84;21418;-45
2021/05/22 05:34:24;;;;;;;2.47;1.42;;;;;;;14.92;65.00;100644.02;1694274;82;21056;-45
2021/05/22 05:36:51;;;;;;;2.20;1.25;;;;;;;15.02;64.35;100642.81;1688712;83;21035;-45
2021/05/22 05:39:17;;;;;;;2.30;1.20;;;;;;;15.11;64.23;100640.80;1693700;82;21024;-46
2021/05/22 05:41:44;;;;;;;2.42;1.10;;;;;;;15.19;63.25;100641.07;1683887;82;21043;-45
2021/05/22 05:44:10;;;;;;;3.47;1.17;;;;;;;15.29;62.96;100632.69;1691424;82;21011;-46
2021/05/22 05:46:37;;;;;;;3.10;1.30;;;;;;;15.39;62.33;100632.00;1696767;82;21011;-46
2021/05/22 05:49:04;;;;;;;2.50;1.07;;;;;;;15.48;62.23;100636.68;1698993;83;21034;-45
2021/05/22 05:51:30;;;;;;;2.00;0.93;;;;;;;15.57;62.47;100638.64;1698804;82;21080;-46
2021/05/22 05:53:58;;;;;;;1.67;1.05;;;;;;;15.66;61.11;100635.75;1699005;82;21014;-45
2021/05/22 05:56:24;;;;;;;4.47;1.77;;;;;;;15.77;58.70;100639.82;1665037;84;21123;-45
2021/05/22 05:58:51;;;;;;;2.05;1.00;;;;;;;15.87;58.20;100637.28;1697175;82;20998;-47
2021/05/22 06:01:19;;;;;;;1.62;0.93;;;;;;;15.97;58.01;100640.95;1699221;82;21040;-41
2021/05/22 06:03:47;;;;;;;1.30;0.90;;;;;;;16.08;57.88;100644.17;1698895;82;21058;-46
2021/05/22 06:06:59;;;;;;;1.72;1.00;;;;;;;16.19;57.27;100643.66;1696105;82;21038;-46
2021/05/22 06:09:26;;;;;;;4.92;3.02;;;;;;;16.31;56.97;100657.98;1639951;87;21105;-47
2021/05/22 06:11:52;;;;;;;2.50;1.62;;;;;;;16.44;55.59;100649.78;1640899;85;21010;-45
2021/05/22 06:14:27;;;;;;;3.70;1.25;;;;;;;16.55;54.97;100645.72;1638994;86;21066;-45
2021/05/22 06:16:47;;;;;;;2.47;1.10;;;;;;;16.64;54.66;100653.55;1622003;85;21043;-45
2021/05/22 06:19:14;;;;;;;4.78;1.75;;;;;;;16.75;54.59;100655.37;1638017;85;21041;-46
2021/05/22 07:02:02;;;;;;;2.77;1.02;;;;;;;17.65;52.41;100668.56;1634684;84;21244;-45
2021/05/22 07:04:56;;;;;;;1.30;1.10;;;;;;;17.74;52.59;100673.17;1621219;85;21065;-51
2021/05/22 07:07:36;;;;;;;2.00;1.27;;;;;;;17.82;52.68;100673.89;1617109;86;21086;-46
2021/05/22 07:10:18;;;;;;;1.80;0.85;;;;;;;17.89;51.94;100675.93;1620448;86;21032;-45
2021/05/22 07:12:59;;;;;;;3.75;1.10;;;;;;;17.96;50.78;100673.54;1616665;86;21065;-43
2021/05/22 07:15:39;;;;;;;3.50;1.32;;;;;;;18.00;49.33;100670.10;1623027;86;21041;-45
2021/05/22 07:18:18;;;;;;;2.98;1.05;;;;;;;18.04;49.43;100668.36;1627308;85;21045;-45
2021/05/22 07:20:58;;;;;;;1.45;0.70;;;;;;;18.07;49.67;100669.44;1627786;86;21595;-44
2021/05/22 07:23:37;;;;;;;3.00;0.65;;;;;;;18.13;49.67;100663.48;1624259;86;21059;-43
2021/05/22 07:26:16;;;;;;;2.47;0.80;;;;;;;18.18;49.42;100665.79;1670070;83;21010;-42
2021/05/22 07:28:57;;;;;;;1.32;0.60;;;;;;;18.25;48.56;100664.77;1645281;85;21065;-45
2021/05/22 07:31:40;;;;;;;;;;;;;;;18.31;48.16;100661.52;1631705;86;21093;-43
2021/05/22 07:34:20;;;;;;;1.15;0.70;;;;;;;18.37;47.44;100668.59;1616996;86;20156;-43
2021/05/22 07:37:00;;;;;;;1.30;0.73;;;;;;;18.44;47.79;100659.94;1638771;86;21030;-42
2021/05/22 07:39:40;;;;;;;0.63;0.60;;;;;;;18.49;47.97;100663.92;1649583;85;21052;-47
2021/05/22 07:42:20;;;;;;;2.58;0.70;;;;;;;18.54;47.28;100662.17;1666152;84;21299;-43
2021/05/22 07:45:00;;;;;;;0.93;0.70;;;;;;;18.62;47.61;100666.38;1669864;84;21492;-44
2021/05/22 07:47:41;;;;;;;2.10;0.75;;;;;;;18.66;47.27;100662.43;1689703;84;21030;-44
2021/05/22 07:50:21;;;;;;;1.70;0.65;;;;;;;18.75;47.50;100663.00;1642351;85;20990;-44
2021/05/22 07:53:02;;;;;;;6.47;1.47;;;;;;;18.83;46.11;100654.20;1669638;84;21050;-44
2021/05/22 07:55:43;;;;;;;1.05;0.60;;;;;;;18.89;43.98;100651.43;1666727;84;21038;-44
2021/05/22 07:58:23;;;;;;;3.25;1.02;;;;;;;18.96;44.24;100645.83;1642869;85;21691;-43
2021/05/22 08:01:03;;;;;;;1.20;0.60;;;;;;;19.03;44.97;100652.39;1673979;85;21034;-44
2021/05/22 08:03:43;;;;;;;2.08;1.40;;;;;;;19.11;45.18;100646.28;1661174;84;21002;-44
2021/05/22 08:06:23;;;;;;;;;;;;;;;19.16;43.96;100639.45;1621878;86;21019;-43
2021/05/22 08:09:04;;;;;;;0.68;0.53;;;;;;;19.24;43.94;100636.03;1667126;84;20195;-43
2021/05/22 08:11:44;;;;;;;4.12;0.93;;;;;;;19.33;44.69;100635.70;1677360;84;21555;-43
2021/05/22 08:14:24;;;;;;;1.35;0.80;;;;;;;19.40;44.81;100634.11;1675694;84;21028;-47
2021/05/22 08:17:04;;;;;;;1.67;1.15;;;;;;;19.48;43.01;100632.91;1617465;86;21054;-48
2021/05/22 08:19:46;;;;;;;1.05;0.95;;;;;;;19.54;42.19;100627.42;1666737;84;21395;-48
2021/05/22 08:22:25;;;;;;;3.27;1.25;;;;;;;19.58;42.63;100624.29;1667421;84;21091;-46
2021/05/22 08:25:06;;;;;;;2.63;0.90;;;;;;;19.64;42.20;100626.40;1676866;84;21112;-51
2021/05/22 08:27:45;;;;;;;;;;;;;;;19.72;43.05;100631.12;1622067;86;21054;-47
2021/05/22 08:30:25;;;;;;;2.95;2.10;;;;;;;19.80;42.59;100627.17;1663936;84;20244;-46
2021/05/22 08:33:05;;;;;;;1.35;1.12;;;;;;;19.88;41.46;100617.85;1633876;86;21084;-49
2021/05/22 08:35:47;;;;;;;3.00;0.93;;;;;;;19.95;41.10;100617.25;1622650;86;21058;-45
2021/05/22 08:38:28;;;;;;;1.22;0.85;;;;;;;19.99;41.53;100614.11;1652146;84;21068;-46
2021/05/22 08:41:09;;;;;;;1.62;0.60;;;;;;;20.04;40.96;100619.09;1625404;86;21026;-45
2021/05/22 08:43:49;;;;;;;1.92;0.95;;;;;;;20.09;40.64;100616.28;1617848;86;21026;-45
2021/05/22 08:46:33;;;;;;;3.62;0.70;;;;;;;20.17;40.03;100609.28;1656459;84;21000;-44
2021/05/22 08:49:15;;;;;;;1.02;0.60;;;;;;;20.23;40.28;100619.50;1662290;83;21356;-46
2021/05/22 08:51:54;;;;;;;1.83;0.83;;;;;;;20.29;40.44;100604.03;1633117;86;21026;-46
2021/05/22 08:54:35;;;;;;;0.95;0.60;;;;;;;20.37;40.16;100618.17;1623349;86;21043;-46
2021/05/22 08:57:15;;;;;;;0.72;0.42;;;;;;;20.41;38.83;100603.31;1654524;84;21465;-46
2021/05/22 08:59:55;;;;;;;3.13;1.00;;;;;;;20.41;38.84;100600.59;1629307;86;21104;-46
2021/05/22 09:02:34;;;;;;;5.10;0.80;;;;;;;20.42;38.56;100595.05;1665480;83;21099;-46
2021/05/22 09:05:33;;;;;;;2.30;0.85;;;;;;;20.45;39.42;100598.80;1629722;86;21615;-47
2021/05/22 09:08:29;;;;;;;1.30;0.62;;;;;;;20.49;38.67;100590.73;1625777;86;21683;-46
2021/05/22 09:11:22;;;;;;;3.33;2.12;;;;;;;20.57;38.44;100583.75;1653245;85;21070;-45
2021/05/22 09:14:16;;;;;;;2.40;1.22;;;;;;;20.63;37.50;100585.83;1699206;82;21002;-45
2021/05/22 09:17:16;;;;;;;2.15;1.02;;;;;;;20.67;36.42;100584.53;1701455;82;21898;-45
2021/05/22 09:20:22;;;;;;;2.50;1.07;;;;;;;20.71;36.99;100576.44;1700237;82;20986;-45
2021/05/22 09:23:22;;;;;;;2.77;0.80;;;;;;;20.77;37.63;100590.73;1702128;82;21054;-44
2021/05/22 09:26:21;;;;;;;1.27;1.07;;;;;;;20.81;35.82;100585.85;1704231;82;21590;-49
2021/05/22 09:29:15;;;;;;;0.95;0.53;;;;;;;20.83;36.44;100583.34;1701262;82;21074;-50
2021/05/22 09:32:16;;;;;;;1.07;0.62;;;;;;;20.87;36.57;100582.55;1633634;85;21030;-44
2021/05/22 09:35:04;;;;;;;2.52;0.50;;;;;;;20.89;36.87;100574.61;1630847;85;21181;-49
2021/05/22 09:37:55;;;;;;;1.25;0.45;;;;;;;20.92;36.57;100574.30;1703564;82;21050;-44
2021/05/22 09:40:50;;;;;;;2.72;0.80;;;;;;;20.93;35.76;100573.28;1705515;82;21042;-45
2021/05/22 09:43:48;;;;;;;1.35;0.68;;;;;;;20.98;34.99;100571.97;1688957;83;21067;-46
2021/05/22 09:46:35;;;;;;;1.77;0.78;;;;;;;20.98;35.44;100568.75;1692612;82;21077;-43
2021/05/22 09:49:16;;;;;;;1.65;0.60;;;;;;;21.00;36.68;100559.13;1701738;82;21593;-44
2021/05/22 09:52:07;;;;;;;;;;;;;;;21.01;35.54;100553.53;1669729;84;21833;-47
2021/05/22 09:54:58;;;;;;;2.00;0.90;;;;;;;21.03;35.97;100558.81;1634426;86;20239;-46
2021/05/22 09:57:44;;;;;;;2.50;1.00;;;;;;;21.07;36.09;100547.50;1652653;85;21057;-42
2021/05/22 10:00:27;;;;;;;1.27;0.60;;;;;;;21.11;37.02;100557.00;1660271;84;21024;-45
2021/05/22 10:03:07;;;;;;;3.42;0.53;;;;;;;21.15;36.28;100553.50;1662902;84;21057;-45
2021/05/22 10:05:47;;;;;;;1.37;0.75;;;;;;;21.18;36.53;100541.83;1697842;83;21097;-46
2021/05/22 10:08:27;;;;;;;1.15;0.80;;;;;;;21.22;36.53;100542.37;1679986;83;21095;-43
2021/05/22 10:11:06;;;;;;;1.40;0.70;;;;;;;21.28;36.67;100547.67;1681549;83;21052;-43
2021/05/22 10:13:46;;;;;;;1.17;0.90;;;;;;;21.33;36.55;100538.55;1684001;83;21016;-40
2021/05/22 10:16:26;;;;;;;2.25;0.60;;;;;;;21.36;36.66;100535.01;1666358;83;21517;-42
2021/05/22 10:19:06;;;;;;;1.15;0.72;;;;;;;21.41;36.11;100535.92;1681015;83;21362;-47
2021/05/22 10:21:51;;;;;;;2.27;1.05;;;;;;;21.44;35.33;100531.53;1675990;83;21564;-49
2021/05/22 10:24:31;;;;;;;4.08;1.57;;;;;;;21.48;35.94;100529.38;1679457;83;21086;-50
2021/05/22 10:27:12;;;;;;;3.00;1.10;;;;;;;21.50;36.20;100524.64;1627036;86;21024;-47
2021/05/22 10:29:52;;;;;;;0.60;0.53;;;;;;;21.54;35.47;100520.59;1645689;85;21050;-47
2021/05/22 10:32:39;;;;;;;1.12;0.60;;;;;;;21.55;34.21;100520.44;1642145;85;21070;-44
2021/05/22 10:35:20;;;;;;;3.22;0.70;;;;;;;21.54;33.56;100513.30;1640907;85;21028;-48
2021/05/22 10:38:06;;;;;;;1.35;0.90;;;;;;;21.53;33.36;100517.03;1646299;85;21023;-47
2021/05/22 10:40:51;;;;;;;2.15;0.50;;;;;;;21.54;33.34;100505.66;1646300;85;21081;-44
2021/05/22 10:44:00;;;;;;;2.77;0.80;;;;;;;21.53;33.34;100506.17;1658895;84;21002;-43
2021/05/22 10:46:37;;;;;;;1.25;0.70;;;;;;;21.55;34.66;100495.17;1655028;85;21048;-46
2021/05/22 10:49:23;;;;;;;1.50;0.60;;;;;;;21.61;34.68;100502.66;1664446;84;21586;-44
2021/05/22 10:52:16;;;;;;;29.15;22.80;;;;;;;21.65;33.14;100497.27;1650415;83;21097;-43
2021/05/22 10:55:17;;;;;;;5.87;2.67;;;;;;;21.67;35.17;100491.19;1686688;83;21018;-42
2021/05/22 10:58:04;;;;;;;1.15;0.72;;;;;;;21.71;34.59;100484.41;1683978;83;21045;-45
2021/05/22 11:00:50;;;;;;;1.60;0.78;;;;;;;21.76;36.47;100473.91;1683209;83;21017;-46
2021/05/22 11:03:23;;;;;;;2.05;1.67;;;;;;;21.82;35.05;100472.41;1642768;85;21014;-46
2021/05/22 11:06:09;;;;;;;8.30;1.27;;;;;;;21.87;33.85;100464.63;1679653;83;20997;-45
2021/05/22 11:08:49;;;;;;;0.98;0.75;;;;;;;21.91;35.25;100474.15;1678701;83;21047;-46
2021/05/22 11:11:39;;;;;;;1.32;0.80;;;;;;;21.97;34.37;100476.71;1680846;83;21635;-46
2021/05/22 11:14:36;;;;;;;2.65;0.62;;;;;;;22.03;34.39;100477.42;1672524;83;20989;-42
2021/05/22 11:17:33;;;;;;;1.30;0.70;;;;;;;22.08;33.29;100471.52;1679254;83;20982;-46
2021/05/22 11:20:17;;;;;;;0.50;0.50;;;;;;;22.09;32.29;100458.27;1682538;83;21091;-44
2021/05/22 11:23:03;;;;;;;4.95;0.98;;;;;;;22.11;32.73;100453.02;1677333;83;21052;-43
2021/05/22 11:26:00;;;;;;;1.30;0.60;;;;;;;22.16;32.33;100446.58;1690221;83;21025;-43
2021/05/22 11:28:58;;;;;;;2.22;0.70;;;;;;;22.19;32.57;100451.70;1687090;83;21057;-42
2021/05/22 11:31:51;;;;;;;2.15;0.60;;;;;;;22.25;32.57;100448.34;1659070;84;21061;-43
2021/05/22 11:34:45;;;;;;;0.60;0.50;;;;;;;22.32;33.41;100453.94;1689022;83;21512;-43
2021/05/22 11:37:38;;;;;;;0.57;0.50;;;;;;;22.35;32.33;100450.03;1685804;83;21061;-44
2021/05/22 11:40:52;;;;;;;6.15;4.58;;;;;;;22.38;32.51;100454.64;1688620;83;21532;-46
2021/05/22 11:43:47;;;;;;;2.22;1.22;;;;;;;22.42;31.87;100451.08;1688964;83;21911;-45
2021/05/22 11:46:40;;;;;;;2.65;0.68;;;;;;;22.44;32.54;100455.84;1681932;83;21062;-45
2021/05/22 11:49:40;;;;;;;3.08;1.15;;;;;;;22.44;32.93;100447.17;1679064;83;21040;-47
2021/05/22 11:52:38;;;;;;;4.15;1.05;;;;;;;22.45;32.75;100457.52;1689103;83;21835;-46
2021/05/22 11:55:31;;;;;;;0.88;0.57;;;;;;;22.46;32.43;100453.81;1681303;83;21062;-45
2021/05/22 11:58:25;;;;;;;1.07;0.42;;;;;;;22.49;32.42;100443.11;1689799;83;21114;-45
2021/05/22 12:01:23;;;;;;;2.17;0.70;;;;;;;22.52;33.12;100444.13;1690466;83;20965;-45
2021/05/22 12:04:19;;;;;;;1.10;0.60;;;;;;;22.55;32.56;100439.71;1691967;82;21070;-45
2021/05/22 12:07:13;;;;;;;1.35;0.55;;;;;;;22.57;33.13;100438.53;1704604;82;21901;-45
2021/05/22 12:10:16;;;;;;;1.37;0.55;;;;;;;22.61;33.55;100441.26;1697238;82;21873;-44
2021/05/22 12:13:09;;;;;;;0.88;0.57;;;;;;;22.63;33.26;100427.52;1689873;82;21002;-43
2021/05/22 12:16:03;;;;;;;3.55;0.72;;;;;;;22.66;33.07;100428.53;1697331;83;20970;-44
2021/05/22 12:18:58;;;;;;;4.78;0.78;;;;;;;22.69;32.59;100419.52;1680248;82;21030;-47
2021/05/22 12:21:58;;;;;;;2.70;0.80;;;;;;;22.72;32.50;100420.20;1701378;82;21609;-45
2021/05/22 12:24:51;;;;;;;1.20;0.60;;;;;;;22.75;32.76;100413.91;1700449;82;21420;-45
2021/05/22 12:27:45;;;;;;;0.98;0.70;;;;;;;22.80;32.07;100413.39;1696008;82;21016;-47
2021/05/22 12:30:39;;;;;;;1.35;0.88;;;;;;;22.83;33.09;100415.77;1700482;82;21542;-47
2021/05/22 12:33:34;;;;;;;1.75;0.60;;;;;;;22.90;33.01;100420.34;1648718;85;21070;-46
2021/05/22 12:36:21;;;;;;;1.12;0.70;;;;;;;22.96;31.43;100412.55;1678682;82;21036;-44
2021/05/22 12:39:01;;;;;;;2.00;0.47;;;;;;;22.96;31.93;100405.76;1693300;83;21582;-43
2021/05/22 12:41:41;;;;;;;1.85;0.53;;;;;;;22.96;31.39;100394.89;1690268;83;21549;-42
2021/05/22 12:44:27;;;;;;;1.75;0.60;;;;;;;22.96;31.88;100398.45;1687744;83;21016;-41
2021/05/22 12:47:08;;;;;;;2.40;0.65;;;;;;;22.98;31.72;100393.72;1649793;85;21050;-42
2021/05/22 12:50:08;;;;;;;3.22;0.65;;;;;;;23.03;31.52;100396.77;1691054;82;21103;-41